»·PEaware :: NGF6389 KEMT-KIGM

NGF6389 :: KEMT-KIGM

FLIGHT INFORMATION

Flight Status: Arrived
Operator: Unknown
More flights by this operator :: More flights under this callsign
Pilot: Charlton B. (28558)
Aircraft: ECLIPSE 500
(EA50)
More flights by this aircraft type
Origin: KEMT El Monte
United States
Destination: KIGM Kingman
United States
More flights between these airports :: More routes between these airports
Route: +
File this flight plan on PilotEdge
Remarks:
Altitude:
(Current/Filed)
17,500ft
Speed:
(Current/Filed)
0kts
Departed: 05-Oct-20 02:44 PM
Arrived: 05-Oct-20 03:27 PM
Distance/Time
Traveled:
214nm/0:43
Distance/Time
To Go:
Arrived

Flight Plot

Page will automatically refresh every two minutes.

Flight plan parsing failed; only flown route is shown


Map Options




Map Legend


Flown Route
Filed Route
Departure Airport
Arrival Airport
Navaid (VOR, NDB)
Fix

Horizontal Profiles

Position Reports

Time Latitude Longitude Heading Altitude Ground
Speed
05-Oct-20 14:36 34.085017 -118.033282 53 289ft 0kts
05-Oct-20 14:37 34.086018 -118.033293 351 289ft 6kts
05-Oct-20 14:38 34.088311 -118.032927 28 290ft 1kts
05-Oct-20 14:39 34.090543 -118.031399 345 296ft 0kts
05-Oct-20 14:40 34.090563 -118.031421 313 296ft 0kts
05-Oct-20 14:41 34.090653 -118.031536 313 295ft 0kts
05-Oct-20 14:42 34.090653 -118.031536 313 295ft 0kts
05-Oct-20 14:42 34.090653 -118.031536 313 295ft 0kts
05-Oct-20 14:44 34.088162 -118.033609 203 288ft 77kts
05-Oct-20 14:45 34.057757 -118.030984 106 2291ft 150kts
05-Oct-20 14:45 34.069179 -117.986710 82 4870ft 176kts
05-Oct-20 14:46 34.079818 -117.928934 79 8181ft 174kts
05-Oct-20 14:47 34.091199 -117.873393 79 11258ft 162kts
05-Oct-20 14:48 34.103119 -117.814433 78 13219ft 206kts
05-Oct-20 14:49 34.118349 -117.740574 79 15393ft 228kts
05-Oct-20 14:50 34.134715 -117.660558 80 17480ft 249kts
05-Oct-20 14:51 34.152376 -117.573747 79 17519ft 255kts
05-Oct-20 14:52 34.169928 -117.487206 79 17522ft 253kts
05-Oct-20 14:53 34.187362 -117.400910 79 17524ft 253kts
05-Oct-20 14:54 34.206311 -117.312256 64 17495ft 256kts
05-Oct-20 14:55 34.256804 -117.239750 53 17525ft 259kts
05-Oct-20 14:56 34.307922 -117.167077 53 17525ft 259kts
05-Oct-20 14:57 34.374603 -117.071793 52 17528ft 262kts
05-Oct-20 14:58 34.475838 -116.926646 50 17541ft 262kts
05-Oct-20 14:59 34.577348 -116.780617 50 17544ft 261kts
05-Oct-20 15:00 34.677223 -116.636266 50 17545ft 261kts
05-Oct-20 15:01 34.776636 -116.491980 50 17545ft 261kts
05-Oct-20 15:02 34.819791 -116.317857 95 18827ft 246kts
05-Oct-20 15:03 34.852194 -116.170676 76 18251ft 377kts
05-Oct-20 15:04 34.875343 -116.054173 78 17559ft 256kts
05-Oct-20 15:05 34.895846 -115.947052 78 17578ft 260kts
05-Oct-20 15:06 34.929787 -115.767614 78 17577ft 260kts
05-Oct-20 15:07 34.963669 -115.586840 78 17538ft 258kts
05-Oct-20 15:08 34.999208 -115.395514 78 17453ft 257kts
05-Oct-20 15:09 35.035148 -115.200218 78 17453ft 256kts
05-Oct-20 15:10 35.069462 -115.012094 79 17439ft 255kts
05-Oct-20 15:11 35.102786 -114.827471 79 17433ft 255kts
05-Oct-20 15:12 35.136098 -114.641289 79 17433ft 255kts
05-Oct-20 15:13 35.158140 -114.517334 80 17423ft 226kts
05-Oct-20 15:14 35.171321 -114.442892 80 15942ft 215kts
05-Oct-20 15:15 35.186297 -114.357484 80 13394ft 230kts
05-Oct-20 15:16 35.200555 -114.276067 80 10847ft 216kts
05-Oct-20 15:17 35.214588 -114.195317 80 8180ft 229kts
05-Oct-20 15:18 35.229210 -114.110793 79 4986ft 211kts
05-Oct-20 15:19 35.236701 -114.047556 80 4722ft 150kts
05-Oct-20 15:20 35.246166 -113.990574 79 4524ft 144kts
05-Oct-20 15:21 35.254748 -113.939717 79 4495ft 125kts
05-Oct-20 15:22 35.277285 -113.901081 41 4496ft 123kts
05-Oct-20 15:23 35.303050 -113.892838 290 4501ft 100kts
05-Oct-20 15:24 35.282930 -113.914125 206 4171ft 102kts
05-Oct-20 15:25 35.261624 -113.935794 226 3394ft 45kts
05-Oct-20 15:26 35.257417 -113.940887 225 3404ft 17kts
05-Oct-20 15:27 35.257123 -113.945312 234 3393ft 13kts

Navigation Log

Ident Type
Flight plan parsing failed, navigation log unavailable